Kagel Canyon, California
Current Conditions -  °F | °C
As of 7:53 AM on Tuesday 21 Oct 2014 (Local Time) from KBUR Reporting Station
Moderate Fog Moderate Fog  
Wind Chill: 59°   Ceiling: 200
Heat Index: 59°   Visibility: 0.5mi
Dew Point: 58°   Wind: 0mph
Humidity: 96%   Direction: NA
Pressure: 29.92"   Gusts: NA
Location:  34.3277°N, 118.389°W
Report Text: KBUR 211453Z 00000KT 1/2SM FG VV002 15/14 A2992 RMK AO2 SLP122 T01500144 53007
Loading
Personal Weather Stations






























Interactive Weather Map
Tropical Storm Tracking
New forecast layout! Learn more

10-Day Weather Forecast

Advertisements
Track Severe Weather on mobile